Time;durP1;ratioP1;P1;durP2;ratioP2;P2;SDS_P1;SDS_P2;PMS_P1;PMS_P2;Temp;Humidity;BMP_temperature;BMP_pressure;BME280_temperature;BME280_humidity;BME280_pressure;Samples;Min_cycle;Max_cycle;Signal;HPM_P1;HPM_P2
2024/01/18 00:01:37;;;;;;;33.80;30.90;;;;;;;-3.66;100.00;99033.00;4957857;28;21007;-44
2024/01/18 00:04:05;;;;;;;35.33;32.17;;;;;;;-3.73;100.00;99038.97;4964086;28;20439;-44
2024/01/18 00:06:33;;;;;;;39.33;33.03;;;;;;;-3.81;100.00;99036.25;4957310;28;20450;-44
2024/01/18 00:09:00;;;;;;;35.53;32.70;;;;;;;-3.91;100.00;99044.13;4957702;28;20503;-43
2024/01/18 00:11:28;;;;;;;35.10;32.20;;;;;;;-4.00;100.00;99058.03;4965692;28;20836;-44
2024/01/18 00:13:56;;;;;;;34.23;31.60;;;;;;;-4.10;100.00;99050.28;4958111;28;20436;-42
2024/01/18 00:16:25;;;;;;;35.90;33.00;;;;;;;-4.17;100.00;99048.38;4957356;28;20900;-44
2024/01/18 00:18:53;;;;;;;32.27;29.97;;;;;;;-4.21;100.00;99049.66;4956244;28;20491;-44
2024/01/18 00:21:20;;;;;;;35.40;32.63;;;;;;;-4.28;100.00;99049.41;4956148;28;20543;-43
2024/01/18 00:23:48;;;;;;;34.37;31.77;;;;;;;-4.35;100.00;99050.94;4956751;28;20932;-44
2024/01/18 00:26:16;;;;;;;34.83;32.20;;;;;;;-4.41;100.00;99055.88;4963247;28;20445;-44
2024/01/18 00:28:43;;;;;;;34.90;32.03;;;;;;;-4.50;100.00;99052.38;4958717;28;21027;-45
2024/01/18 00:31:11;;;;;;;34.40;31.73;;;;;;;-4.61;100.00;99060.34;4956640;28;20455;-43
2024/01/18 00:33:40;;;;;;;33.83;31.47;;;;;;;-4.71;100.00;99056.94;4956975;28;20442;-43
2024/01/18 00:36:08;;;;;;;33.07;30.40;;;;;;;-4.80;100.00;99061.22;4962570;28;21024;-43
2024/01/18 00:38:36;;;;;;;34.90;32.33;;;;;;;-4.88;100.00;99065.47;4966870;28;21005;-42
2024/01/18 00:41:04;;;;;;;34.23;31.50;;;;;;;-4.97;100.00;99061.13;4955373;28;20454;-43
2024/01/18 00:43:31;;;;;;;34.60;32.03;;;;;;;-5.05;100.00;99060.03;4982217;23;20480;-36
2024/01/18 00:46:03;;;;;;;33.17;30.70;;;;;;;-5.12;100.00;99058.94;4947348;29;20455;-40
2024/01/18 00:48:31;;;;;;;33.33;30.90;;;;;;;-5.21;100.00;99062.38;4941026;29;20902;-36
2024/01/18 00:51:00;;;;;;;33.63;31.33;;;;;;;-5.30;100.00;99072.78;4947630;28;20788;-38
2024/01/18 00:53:28;;;;;;;33.87;31.43;;;;;;;-5.40;100.00;99077.97;4939460;28;20527;-36
2024/01/18 00:55:56;;;;;;;34.10;31.40;;;;;;;-5.46;100.00;99086.28;4935517;29;20523;-36
2024/01/18 00:58:23;;;;;;;34.17;31.37;;;;;;;-5.52;100.00;99089.44;4951662;29;20476;-39
2024/01/18 01:00:51;;;;;;;34.03;31.13;;;;;;;-5.56;100.00;99092.44;4946750;28;20441;-36
2024/01/18 01:03:19;;;;;;;34.27;31.37;;;;;;;-5.62;100.00;99096.41;4947474;28;21002;-38
2024/01/18 01:05:47;;;;;;;32.77;29.97;;;;;;;-5.65;100.00;99094.09;4943354;29;20437;-38
2024/01/18 01:08:16;;;;;;;32.90;30.50;;;;;;;-5.71;100.00;99092.84;4938670;28;20807;-38
2024/01/18 01:10:44;;;;;;;32.60;30.00;;;;;;;-5.73;100.00;99101.69;4949105;29;20518;-41
2024/01/18 01:13:12;;;;;;;35.33;32.37;;;;;;;-5.76;100.00;99099.38;4945951;28;20471;-36
2024/01/18 01:15:40;;;;;;;33.13;30.73;;;;;;;-5.82;100.00;99105.91;4944889;28;20583;-40
2024/01/18 01:18:10;;;;;;;32.30;29.90;;;;;;;-5.83;100.00;99106.06;4950564;28;20445;-38
2024/01/18 01:20:40;;;;;;;34.00;31.33;;;;;;;-5.87;100.00;99110.72;4943799;29;20444;-38
2024/01/18 01:23:08;;;;;;;34.03;31.43;;;;;;;-5.89;100.00;99114.41;4938187;28;20468;-36
2024/01/18 01:25:37;;;;;;;36.23;33.30;;;;;;;-5.92;100.00;99115.50;4941572;29;20452;-36
2024/01/18 01:28:05;;;;;;;36.60;33.77;;;;;;;-5.93;100.00;99118.22;4952178;28;20451;-37
2024/01/18 01:30:33;;;;;;;35.13;32.30;;;;;;;-5.98;100.00;99121.22;4943293;29;20469;-38
2024/01/18 01:33:01;;;;;;;35.47;32.63;;;;;;;-6.02;100.00;99131.97;4951053;28;20460;-39
2024/01/18 01:35:29;;;;;;;35.60;33.00;;;;;;;-6.06;100.00;99128.81;4951406;28;21008;-37
2024/01/18 01:37:57;;;;;;;37.13;34.37;;;;;;;-6.08;100.00;99130.72;4932351;29;20492;-39
2024/01/18 01:40:25;;;;;;;34.60;32.30;;;;;;;-6.13;100.00;99126.88;4939943;29;20472;-35
2024/01/18 01:42:55;;;;;;;33.80;31.40;;;;;;;-6.17;100.00;99126.31;4941899;28;20464;-35
2024/01/18 01:45:23;;;;;;;33.80;31.43;;;;;;;-6.21;100.00;99130.13;4944803;28;20445;-36
2024/01/18 01:47:51;;;;;;;33.20;30.80;;;;;;;-6.29;100.00;99128.19;4942383;29;20449;-37
2024/01/18 01:50:19;;;;;;;33.00;30.60;;;;;;;-6.33;100.00;99126.78;4950680;29;20467;-37
2024/01/18 01:52:48;;;;;;;33.73;31.17;;;;;;;-6.37;100.00;99124.59;4948862;28;20503;-39
2024/01/18 01:55:17;;;;;;;32.50;30.30;;;;;;;-6.44;100.00;99129.47;4942592;29;20875;-39
2024/01/18 01:57:48;;;;;;;33.30;30.93;;;;;;;-6.50;100.00;99150.72;4941518;28;20450;-40
2024/01/18 02:00:17;;;;;;;34.87;32.20;;;;;;;-6.55;100.00;99152.91;4945568;29;20495;-39
2024/01/18 02:02:46;;;;;;;35.40;32.70;;;;;;;-6.62;100.00;99150.94;4941658;28;20464;-36
2024/01/18 02:05:15;;;;;;;33.77;31.40;;;;;;;-6.64;100.00;99156.25;4941653;28;20907;-36
2024/01/18 02:07:43;;;;;;;34.73;32.23;;;;;;;-6.64;100.00;99161.44;4942074;28;20448;-40
2024/01/18 02:10:11;;;;;;;35.00;32.10;;;;;;;-6.66;100.00;99159.94;4932305;29;20440;-41
2024/01/18 02:12:40;;;;;;;36.27;33.43;;;;;;;-6.70;100.00;99159.34;4948317;28;20464;-40
2024/01/18 02:15:09;;;;;;;35.40;32.47;;;;;;;-6.74;100.00;99155.34;4946649;28;20852;-37
2024/01/18 02:17:38;;;;;;;35.60;32.80;;;;;;;-6.82;100.00;99161.19;4939955;29;20484;-37
2024/01/18 02:20:07;;;;;;;35.97;33.30;;;;;;;-6.87;100.00;99171.09;4943140;28;20440;-37
2024/01/18 02:22:38;;;;;;;33.83;31.53;;;;;;;-6.95;100.00;99170.88;4949815;28;20471;-38
2024/01/18 02:25:21;;;;;;;32.93;30.67;;;;;;;-6.97;100.00;99177.16;4943116;28;20790;-37
2024/01/18 02:27:49;;;;;;;35.97;33.23;;;;;;;-7.01;100.00;99173.16;4942621;28;20452;-37
2024/01/18 02:30:16;;;;;;;33.17;30.87;;;;;;;-7.01;100.00;99175.75;4944948;29;20445;-36
2024/01/18 02:32:44;;;;;;;33.00;30.53;;;;;;;-7.06;100.00;99172.72;4932852;28;20543;-39
2024/01/18 02:35:12;;;;;;;35.40;32.83;;;;;;;-7.07;100.00;99171.88;4951040;28;20470;-40
2024/01/18 02:37:41;;;;;;;35.60;32.93;;;;;;;-7.09;100.00;99168.59;4942819;28;20476;-35
2024/01/18 02:40:09;;;;;;;34.47;31.90;;;;;;;-7.13;100.00;99174.13;4946091;28;20492;-39
2024/01/18 02:42:38;;;;;;;32.07;29.47;;;;;;;-7.15;100.00;99173.44;4946892;28;20469;-36
2024/01/18 02:45:07;;;;;;;33.20;30.63;;;;;;;-7.17;100.00;99177.94;4939172;28;20468;-42
2024/01/18 02:47:36;;;;;;;34.13;31.57;;;;;;;-7.13;100.00;99184.50;4948010;29;20432;-40
2024/01/18 02:50:05;;;;;;;34.90;32.10;;;;;;;-7.13;100.00;99185.31;4935456;29;20467;-37
2024/01/18 02:52:33;;;;;;;32.47;30.00;;;;;;;-7.14;100.00;99185.47;4951040;28;20793;-39
2024/01/18 02:55:01;;;;;;;33.77;31.47;;;;;;;-7.10;100.00;99186.84;4941945;29;20551;-39
2024/01/18 02:57:29;;;;;;;32.37;29.97;;;;;;;-7.09;100.00;99186.72;4942944;29;20511;-39
2024/01/18 02:59:58;;;;;;;34.23;31.83;;;;;;;-7.04;100.00;99186.34;4941381;28;20450;-38
2024/01/18 03:02:26;;;;;;;33.90;31.60;;;;;;;-6.99;100.00;99194.59;4944061;28;20888;-40
2024/01/18 03:04:54;;;;;;;33.20;30.90;;;;;;;-6.95;100.00;99201.16;4952272;28;20595;-38
2024/01/18 03:07:21;;;;;;;33.80;31.50;;;;;;;-6.90;100.00;99204.22;4953318;29;20499;-37
2024/01/18 03:09:49;;;;;;;33.17;30.77;;;;;;;-6.83;100.00;99200.16;4954175;29;20534;-37
2024/01/18 03:12:17;;;;;;;32.17;30.10;;;;;;;-6.79;100.00;99206.75;4947279;28;20836;-38
2024/01/18 03:14:45;;;;;;;34.27;31.73;;;;;;;-6.76;100.00;99211.69;4943398;29;20471;-36
2024/01/18 03:17:14;;;;;;;34.53;32.03;;;;;;;-6.76;100.00;99219.47;4953799;28;20486;-38
2024/01/18 03:19:41;;;;;;;33.20;31.00;;;;;;;-6.77;100.00;99221.22;4953339;28;20444;-42
2024/01/18 03:22:09;;;;;;;33.97;31.43;;;;;;;-6.80;100.00;99218.06;4953299;28;20472;-41
2024/01/18 03:24:37;;;;;;;35.00;32.50;;;;;;;-6.79;100.00;99217.13;4936876;29;20548;-37
2024/01/18 03:27:05;;;;;;;33.70;31.27;;;;;;;-6.82;100.00;99210.44;4942594;29;20874;-37
2024/01/18 03:29:33;;;;;;;33.83;31.40;;;;;;;-6.83;100.00;99211.34;4942448;29;20492;-37
2024/01/18 03:32:00;;;;;;;32.97;30.10;;;;;;;-6.84;100.00;99214.09;4952931;28;20460;-36
2024/01/18 03:34:30;;;;;;;35.30;32.50;;;;;;;-6.87;100.00;99217.72;4938213;28;20473;-40
2024/01/18 03:36:58;;;;;;;35.40;32.60;;;;;;;-6.89;100.00;99218.81;4944194;29;20563;-38
2024/01/18 03:39:25;;;;;;;33.67;31.50;;;;;;;-6.89;100.00;99217.03;4945203;29;20980;-38
2024/01/18 03:41:53;;;;;;;34.60;32.00;;;;;;;-6.89;100.00;99211.03;4951954;28;20495;-38
2024/01/18 03:44:21;;;;;;;32.83;30.43;;;;;;;-6.89;100.00;99218.81;4939820;29;20529;-41
2024/01/18 03:46:49;;;;;;;32.97;30.47;;;;;;;-6.87;100.00;99227.28;4951313;29;20436;-40
2024/01/18 03:49:16;;;;;;;30.87;28.97;;;;;;;-6.83;100.00;99228.69;4947577;29;20448;-40
2024/01/18 03:51:45;;;;;;;33.47;31.03;;;;;;;-6.84;100.00;99227.84;4933747;28;20468;-39
2024/01/18 03:54:14;;;;;;;32.83;30.50;;;;;;;-6.86;100.00;99226.31;4944916;28;20807;-42
2024/01/18 03:56:41;;;;;;;32.93;30.70;;;;;;;-6.85;100.00;99231.41;4937314;28;20477;-37
2024/01/18 03:59:09;;;;;;;32.27;30.20;;;;;;;-6.85;100.00;99234.00;4945848;29;20439;-38
2024/01/18 04:01:37;;;;;;;32.60;30.40;;;;;;;-6.85;100.00;99228.00;4936272;28;20469;-40
2024/01/18 04:04:05;;;;;;;32.80;30.60;;;;;;;-6.87;100.00;99232.47;4929545;29;20464;-40
2024/01/18 04:06:33;;;;;;;32.83;30.63;;;;;;;-6.86;100.00;99239.28;4937692;29;20841;-44
2024/01/18 04:09:02;;;;;;;33.27;30.67;;;;;;;-6.89;100.00;99242.13;4951892;29;20507;-39
2024/01/18 04:11:30;;;;;;;32.70;30.40;;;;;;;-6.90;100.00;99235.31;4951628;28;20467;-37
2024/01/18 04:13:58;;;;;;;31.83;29.60;;;;;;;-6.93;100.00;99236.34;4943935;29;20460;-41
2024/01/18 04:16:26;;;;;;;32.97;30.87;;;;;;;-6.92;100.00;99242.38;4946694;28;20551;-35
2024/01/18 04:18:53;;;;;;;34.57;32.10;;;;;;;-6.93;100.00;99238.16;4948910;29;20450;-39
2024/01/18 04:21:21;;;;;;;32.27;30.37;;;;;;;-6.96;100.00;99239.19;4944831;28;20467;-40
2024/01/18 04:23:49;;;;;;;34.10;31.73;;;;;;;-6.97;100.00;99239.34;4951949;28;20959;-40
2024/01/18 04:26:18;;;;;;;33.17;30.73;;;;;;;-6.98;100.00;99241.09;4952052;29;20826;-38
2024/01/18 04:28:46;;;;;;;33.10;31.00;;;;;;;-6.99;100.00;99236.84;4944026;28;20672;-37
2024/01/18 04:31:14;;;;;;;33.43;31.23;;;;;;;-6.98;100.00;99235.91;4948062;28;20469;-41
2024/01/18 04:33:41;;;;;;;33.23;30.73;;;;;;;-6.98;100.00;99235.09;4949648;28;20459;-41
2024/01/18 04:36:10;;;;;;;33.23;30.97;;;;;;;-6.98;100.00;99235.91;4941504;29;20943;-36
2024/01/18 04:38:38;;;;;;;35.93;33.27;;;;;;;-6.97;100.00;99231.56;4946644;28;20835;-41
2024/01/18 04:41:06;;;;;;;33.80;31.40;;;;;;;-6.97;100.00;99234.97;4929347;29;20970;-37
2024/01/18 04:43:35;;;;;;;32.30;30.20;;;;;;;-6.96;100.00;99246.16;4937173;29;20528;-40
2024/01/18 04:46:04;;;;;;;32.23;30.17;;;;;;;-6.94;100.00;99250.28;4944075;29;20771;-40
2024/01/18 04:48:32;;;;;;;34.10;31.70;;;;;;;-6.93;100.00;99246.72;4951439;29;20803;-37
2024/01/18 04:51:00;;;;;;;33.23;31.13;;;;;;;-6.92;100.00;99242.38;4941513;28;20444;-35
2024/01/18 04:53:27;;;;;;;32.60;30.50;;;;;;;-6.93;100.00;99251.13;4946166;28;20459;-37
2024/01/18 04:55:56;;;;;;;34.10;31.87;;;;;;;-6.90;100.00;99256.06;4948862;29;20523;-37
2024/01/18 04:58:24;;;;;;;33.30;31.20;;;;;;;-6.90;100.00;99249.06;4940871;29;20563;-44
2024/01/18 05:00:53;;;;;;;33.40;31.07;;;;;;;-6.89;100.00;99252.50;4948687;28;20471;-40
2024/01/18 05:03:20;;;;;;;32.97;30.77;;;;;;;-6.90;100.00;99251.66;4944074;28;20563;-38
2024/01/18 05:05:48;;;;;;;29.80;27.77;;;;;;;-6.90;100.00;99263.81;4943124;29;20836;-39
2024/01/18 05:08:16;;;;;;;31.37;29.20;;;;;;;-6.87;100.00;99261.00;4944310;29;21104;-37
2024/01/18 05:10:45;;;;;;;31.83;29.53;;;;;;;-6.86;100.00;99271.22;4950421;29;20443;-37
2024/01/18 05:13:12;;;;;;;32.10;29.80;;;;;;;-6.83;100.00;99263.19;4939915;28;20880;-42
2024/01/18 05:15:40;;;;;;;33.50;31.10;;;;;;;-6.79;100.00;99256.81;4948447;29;20444;-38
2024/01/18 05:18:09;;;;;;;32.00;29.70;;;;;;;-6.73;100.00;99252.91;4932299;29;20527;-40
2024/01/18 05:20:38;;;;;;;33.00;30.40;;;;;;;-6.67;100.00;99244.66;4940680;29;20441;-42
2024/01/18 05:23:06;;;;;;;33.77;31.33;;;;;;;-6.62;100.00;99244.25;4949646;28;20516;-36
2024/01/18 05:25:34;;;;;;;37.37;32.97;;;;;;;-6.61;100.00;99249.34;4951092;28;20448;-37
2024/01/18 05:28:02;;;;;;;53.97;41.70;;;;;;;-6.59;100.00;99255.22;4940581;29;20436;-38
2024/01/18 05:30:30;;;;;;;51.40;42.20;;;;;;;-6.57;100.00;99253.31;4937829;29;21137;-42
2024/01/18 05:32:57;;;;;;;41.23;37.13;;;;;;;-6.56;100.00;99246.34;4942068;28;20497;-37
2024/01/18 05:35:27;;;;;;;34.47;31.70;;;;;;;-6.53;100.00;99252.13;4945687;28;20436;-35
2024/01/18 05:37:54;;;;;;;32.13;29.97;;;;;;;-6.51;100.00;99252.81;4923000;29;20897;-38
2024/01/18 05:40:22;;;;;;;38.30;34.63;;;;;;;-6.48;100.00;99252.56;4926312;29;20535;-41
2024/01/18 05:42:50;;;;;;;32.90;30.63;;;;;;;-6.48;100.00;99255.16;4914327;29;20548;-38
2024/01/18 05:45:18;;;;;;;31.17;29.17;;;;;;;-6.48;100.00;99257.75;4913835;29;20442;-41
2024/01/18 05:47:46;;;;;;;30.10;28.20;;;;;;;-6.50;100.00;99261.41;4920233;29;20433;-36
2024/01/18 05:50:13;;;;;;;31.70;29.53;;;;;;;-6.51;100.00;99263.19;4913302;29;20472;-40
2024/01/18 05:52:43;;;;;;;31.77;29.87;;;;;;;-6.59;100.00;99270.75;4912094;29;20468;-37
2024/01/18 05:55:12;;;;;;;29.87;28.07;;;;;;;-6.65;100.00;99271.25;4920390;29;20513;-37
2024/01/18 05:57:41;;;;;;;30.63;28.57;;;;;;;-6.74;100.00;99274.59;4912839;29;20477;-36
2024/01/18 06:00:10;;;;;;;33.47;31.10;;;;;;;-6.79;100.00;99287.09;4920701;29;20462;-38
2024/01/18 06:02:38;;;;;;;31.73;29.60;;;;;;;-6.82;100.00;99282.16;4912104;29;20469;-37
2024/01/18 06:05:07;;;;;;;31.83;29.70;;;;;;;-6.88;100.00;99283.47;4915830;29;20587;-40
2024/01/18 06:07:39;;;;;;;31.33;29.23;;;;;;;-6.93;100.00;99282.22;4924243;29;20465;-37
2024/01/18 06:10:09;;;;;;;30.20;28.43;;;;;;;-6.98;100.00;99292.91;4920657;29;20469;-37
2024/01/18 06:12:37;;;;;;;32.80;30.47;;;;;;;-7.03;100.00;99286.47;4912266;29;20461;-41
2024/01/18 06:15:05;;;;;;;32.00;29.17;;;;;;;-7.11;100.00;99292.25;4913071;29;21020;-38
2024/01/18 06:17:33;;;;;;;31.40;29.20;;;;;;;-7.14;100.00;99297.69;4913212;29;20497;-40
2024/01/18 06:20:01;;;;;;;32.60;30.17;;;;;;;-7.16;100.00;99303.91;4914610;29;20437;-37
2024/01/18 06:22:29;;;;;;;31.70;29.40;;;;;;;-7.20;100.00;99311.09;4917503;29;21004;-40
2024/01/18 06:24:57;;;;;;;31.07;28.87;;;;;;;-7.20;100.00;99315.47;4914161;29;20462;-37
2024/01/18 06:27:26;;;;;;;31.37;28.90;;;;;;;-7.22;100.00;99317.31;4924186;29;20474;-38
2024/01/18 06:29:54;;;;;;;31.30;29.27;;;;;;;-7.20;100.00;99318.06;4914484;29;20948;-41
2024/01/18 06:32:22;;;;;;;31.77;29.57;;;;;;;-7.22;100.00;99332.88;4919943;28;20469;-41
2024/01/18 06:34:50;;;;;;;30.40;28.10;;;;;;;-7.21;100.00;99331.94;4929717;29;20469;-38
2024/01/18 06:37:18;;;;;;;32.90;30.63;;;;;;;-7.19;100.00;99335.22;4919220;29;20453;-41
2024/01/18 06:39:46;;;;;;;32.87;29.93;;;;;;;-7.20;100.00;99341.38;4916125;29;20489;-38
2024/01/18 06:42:14;;;;;;;31.63;28.90;;;;;;;-7.21;100.00;99339.72;4922358;28;21060;-40
2024/01/18 06:44:46;;;;;;;31.10;28.83;;;;;;;-7.22;100.00;99336.28;4930519;29;20476;-37
2024/01/18 06:47:14;;;;;;;31.73;28.90;;;;;;;-7.21;100.00;99339.72;4923312;29;20438;-37
2024/01/18 06:49:42;;;;;;;30.77;28.57;;;;;;;-7.19;100.00;99350.75;4915779;29;20817;-41
2024/01/18 06:52:09;;;;;;;30.30;27.97;;;;;;;-7.16;100.00;99356.53;4922885;29;20528;-40
2024/01/18 06:54:37;;;;;;;30.03;27.73;;;;;;;-7.11;100.00;99353.59;4917358;29;20449;-37
2024/01/18 06:57:05;;;;;;;32.10;29.83;;;;;;;-7.08;100.00;99350.78;4923045;29;20437;-38
2024/01/18 06:59:33;;;;;;;31.10;28.50;;;;;;;-7.02;100.00;99371.84;4920822;29;20476;-38
2024/01/18 07:02:02;;;;;;;31.53;29.30;;;;;;;-6.98;100.00;99368.06;4916660;29;20461;-40
2024/01/18 07:04:30;;;;;;;30.97;28.77;;;;;;;-6.94;100.00;99369.47;4916292;29;20548;-38
2024/01/18 07:06:58;;;;;;;30.30;28.30;;;;;;;-6.90;100.00;99376.06;4916019;29;20445;-38
2024/01/18 07:09:26;;;;;;;30.37;28.30;;;;;;;-6.84;100.00;99377.38;4928963;29;20465;-41
2024/01/18 07:11:54;;;;;;;29.33;27.37;;;;;;;-6.78;100.00;99385.47;4931830;28;21013;-37
2024/01/18 07:14:22;;;;;;;30.13;27.57;;;;;;;-6.70;100.00;99377.09;4922303;29;21015;-37
2024/01/18 07:16:50;;;;;;;28.40;26.77;;;;;;;-6.60;100.00;99382.38;4917102;29;20433;-36
2024/01/18 07:19:19;;;;;;;29.37;26.63;;;;;;;-6.55;100.00;99378.47;4922985;29;21032;-36
2024/01/18 07:21:47;;;;;;;28.43;26.70;;;;;;;-6.50;100.00;99384.13;4915104;29;20458;-36
2024/01/18 07:24:15;;;;;;;29.33;27.53;;;;;;;-6.45;100.00;99381.19;4915647;29;20525;-36
2024/01/18 07:26:43;;;;;;;29.37;27.60;;;;;;;-6.41;100.00;99387.75;4915503;29;20509;-35
2024/01/18 07:29:10;;;;;;;30.13;28.03;;;;;;;-6.39;100.00;99383.28;4923163;29;20437;-35
2024/01/18 07:31:38;;;;;;;29.17;27.37;;;;;;;-6.38;100.00;99385.72;4914907;29;20548;-38
2024/01/18 07:34:06;;;;;;;30.57;28.23;;;;;;;-6.34;100.00;99388.91;4914874;29;20454;-39
2024/01/18 07:36:35;;;;;;;30.37;28.47;;;;;;;-6.33;100.00;99386.19;4929324;29;20468;-37
2024/01/18 07:39:03;;;;;;;32.13;29.77;;;;;;;-6.30;100.00;99391.13;4927003;29;20654;-35
2024/01/18 07:41:31;;;;;;;29.40;27.70;;;;;;;-6.27;100.00;99390.03;4926908;29;20464;-35
2024/01/18 07:43:59;;;;;;;29.27;27.27;;;;;;;-6.23;100.00;99391.47;4918691;29;20727;-36
2024/01/18 07:46:27;;;;;;;29.63;27.93;;;;;;;-6.21;100.00;99400.75;4921420;29;20497;-36
2024/01/18 07:48:55;;;;;;;30.60;28.20;;;;;;;-6.14;100.00;99392.47;4922483;29;20511;-39
2024/01/18 07:51:24;;;;;;;28.97;27.27;;;;;;;-6.09;100.00;99401.53;4915102;29;20461;-36
2024/01/18 07:53:53;;;;;;;28.93;27.10;;;;;;;-6.03;100.00;99398.44;4931262;28;20466;-40
2024/01/18 07:56:21;;;;;;;28.03;26.17;;;;;;;-5.98;100.00;99404.09;4923759;29;20442;-36
2024/01/18 07:58:49;;;;;;;27.43;25.73;;;;;;;-5.91;100.00;99412.22;4917659;29;20509;-36
2024/01/18 08:01:18;;;;;;;31.43;29.27;;;;;;;-5.81;100.00;99420.88;4922721;28;20466;-36
2024/01/18 08:03:46;;;;;;;27.70;26.13;;;;;;;-5.69;100.00;99422.44;4931659;29;20449;-35
2024/01/18 08:06:14;;;;;;;28.10;26.50;;;;;;;-5.53;100.00;99422.03;4917625;29;20437;-40
2024/01/18 08:08:41;;;;;;;29.73;27.87;;;;;;;-5.38;100.00;99424.19;4924236;29;20442;-35
2024/01/18 08:11:11;;;;;;;29.93;27.87;;;;;;;-5.21;100.00;99441.78;4915625;29;20719;-35
2024/01/18 08:13:39;;;;;;;29.70;27.70;;;;;;;-5.01;100.00;99434.88;4915795;29;20570;-40
2024/01/18 08:16:07;;;;;;;29.97;28.00;;;;;;;-4.70;100.00;99439.13;4915635;29;20472;-40
2024/01/18 08:18:36;;;;;;;30.30;28.17;;;;;;;-4.42;100.00;99453.16;4914996;29;20510;-35
2024/01/18 08:21:05;;;;;;;29.50;27.77;;;;;;;-4.33;100.00;99451.56;4915180;29;20536;-35
2024/01/18 08:23:37;;;;;;;29.43;27.73;;;;;;;-4.29;100.00;99461.56;4929591;29;20452;-38
2024/01/18 08:26:06;;;;;;;30.23;28.23;;;;;;;-4.32;100.00;99461.00;4934169;29;20436;-36
2024/01/18 08:28:36;;;;;;;29.43;27.73;;;;;;;-4.39;100.00;99481.50;4918303;29;20525;-35
2024/01/18 08:31:04;;;;;;;29.33;27.47;;;;;;;-4.41;100.00;99477.41;4923839;29;20525;-36
2024/01/18 08:33:32;;;;;;;30.27;28.50;;;;;;;-4.41;100.00;99488.63;4915044;29;20457;-37
2024/01/18 08:36:00;;;;;;;28.53;26.73;;;;;;;-4.37;100.00;99484.81;4922450;29;20469;-36
2024/01/18 08:38:28;;;;;;;28.47;26.83;;;;;;;-4.29;100.00;99484.16;4916280;29;20434;-36
2024/01/18 08:40:57;;;;;;;28.90;27.20;;;;;;;-4.27;100.00;99488.25;4926136;28;20866;-35
2024/01/18 08:43:27;;;;;;;27.53;25.93;;;;;;;-4.22;100.00;99495.69;4928688;29;21050;-36
2024/01/18 08:45:56;;;;;;;27.87;26.27;;;;;;;-4.20;100.00;99493.75;4936296;29;20441;-39
2024/01/18 08:48:23;;;;;;;29.27;27.60;;;;;;;-4.21;100.00;99486.94;4933005;29;20861;-36
2024/01/18 08:50:51;;;;;;;29.73;27.97;;;;;;;-4.22;100.00;99493.91;4924237;29;20944;-38
2024/01/18 08:53:22;;;;;;;28.60;27.10;;;;;;;-4.24;100.00;99490.59;4920486;29;20460;-38
2024/01/18 08:55:50;;;;;;;27.97;26.47;;;;;;;-4.20;100.00;99501.56;4928327;28;20767;-36
2024/01/18 08:58:18;;;;;;;29.53;27.73;;;;;;;-4.17;100.00;99504.75;4920241;29;20528;-36
2024/01/18 09:00:46;;;;;;;31.40;29.40;;;;;;;-4.11;100.00;99499.00;4919635;29;20511;-35
2024/01/18 09:03:15;;;;;;;29.27;27.40;;;;;;;-4.00;100.00;99506.69;4925794;29;20611;-37
2024/01/18 09:05:45;;;;;;;28.90;27.10;;;;;;;-3.91;100.00;99505.88;4929318;29;20445;-36
2024/01/18 09:08:13;;;;;;;28.80;26.90;;;;;;;-3.77;100.00;99524.69;4917618;29;20442;-35
2024/01/18 09:10:41;;;;;;;29.63;27.83;;;;;;;-3.66;100.00;99524.56;4923407;29;20429;-39
2024/01/18 09:13:09;;;;;;;29.50;27.40;;;;;;;-3.53;100.00;99522.50;4933717;28;21002;-36
2024/01/18 09:15:37;;;;;;;29.40;27.67;;;;;;;-3.39;100.00;99533.34;4924822;29;20438;-36
2024/01/18 09:18:06;;;;;;;30.30;28.53;;;;;;;-3.25;100.00;99536.47;4924762;29;20860;-36
2024/01/18 09:20:35;;;;;;;30.73;28.90;;;;;;;-3.09;100.00;99542.78;4924668;29;20469;-36
2024/01/18 09:23:03;;;;;;;29.43;27.73;;;;;;;-2.94;100.00;99546.63;4917337;29;20500;-36
2024/01/18 09:25:40;;;;;;;30.53;28.73;;;;;;;-2.83;100.00;99550.84;4924893;29;20476;-38
2024/01/18 09:28:09;;;;;;;29.40;27.70;;;;;;;-2.67;100.00;99556.31;4917777;29;20523;-36
2024/01/18 09:30:37;;;;;;;27.83;26.23;;;;;;;-2.59;100.00;99563.41;4917112;29;20798;-36
2024/01/18 09:33:09;;;;;;;28.70;26.90;;;;;;;-2.46;100.00;99569.16;4915187;29;20521;-40
2024/01/18 09:35:40;;;;;;;28.80;26.90;;;;;;;-2.39;100.00;99571.03;4924224;29;20925;-36
2024/01/18 09:38:10;;;;;;;28.30;26.50;;;;;;;-2.35;100.00;99576.81;4925793;29;20440;-40
2024/01/18 09:40:40;;;;;;;28.27;26.53;;;;;;;-2.36;100.00;99575.97;4921962;29;20476;-39
2024/01/18 09:43:09;;;;;;;29.10;27.33;;;;;;;-2.33;100.00;99587.94;4927286;28;20468;-36
2024/01/18 09:45:40;;;;;;;28.50;26.90;;;;;;;-2.31;100.00;99586.00;4937260;29;20440;-40
2024/01/18 09:48:08;;;;;;;28.47;26.97;;;;;;;-2.22;100.00;99600.81;4928786;29;20437;-36
2024/01/18 09:50:43;;;;;;;29.20;27.60;;;;;;;-2.14;100.00;99595.69;4935940;29;20525;-39
2024/01/18 09:53:10;;;;;;;29.43;27.70;;;;;;;-2.07;100.00;99598.56;4936477;28;20464;-36
2024/01/18 09:55:38;;;;;;;28.03;26.53;;;;;;;-1.94;100.00;99597.25;4924555;29;20493;-40
2024/01/18 09:58:12;;;;;;;29.77;28.13;;;;;;;-1.83;100.00;99602.31;4916558;29;20505;-38
2024/01/18 10:00:44;;;;;;;28.87;27.17;;;;;;;-1.75;100.00;99602.41;4916177;29;20847;-36
2024/01/18 10:03:12;;;;;;;28.27;26.67;;;;;;;-1.70;100.00;99602.75;4923604;29;20539;-36
2024/01/18 10:05:43;;;;;;;27.83;26.33;;;;;;;-1.61;100.00;99606.28;4914780;29;20442;-36
2024/01/18 10:08:11;;;;;;;30.27;28.60;;;;;;;-1.47;100.00;99610.22;4916468;29;20437;-37
2024/01/18 10:10:39;;;;;;;29.67;27.97;;;;;;;-1.38;100.00;99609.31;4922774;29;20433;-38
2024/01/18 10:13:07;;;;;;;28.37;26.73;;;;;;;-1.31;100.00;99608.56;4928245;28;20521;-37
2024/01/18 10:15:35;;;;;;;29.07;27.57;;;;;;;-1.18;100.00;99622.13;4919939;29;20437;-36
2024/01/18 10:18:06;;;;;;;30.07;28.47;;;;;;;-1.03;100.00;99632.88;4934150;29;20441;-36
2024/01/18 10:20:34;;;;;;;29.67;27.97;;;;;;;-0.91;100.00;99626.44;4924028;29;20483;-36
2024/01/18 10:23:03;;;;;;;29.33;27.67;;;;;;;-0.77;100.00;99633.75;4922951;28;20461;-36
2024/01/18 10:25:32;;;;;;;28.40;26.90;;;;;;;-0.60;100.00;99643.38;4926550;29;20434;-37
2024/01/18 10:28:00;;;;;;;28.53;26.80;;;;;;;-0.43;100.00;99641.72;4920601;29;20434;-39
2024/01/18 10:30:28;;;;;;;28.37;26.67;;;;;;;-0.25;100.00;99646.91;4926785;29;20438;-37
2024/01/18 10:32:56;;;;;;;28.07;26.57;;;;;;;-0.13;100.00;99651.75;4919550;29;20537;-36
2024/01/18 10:35:26;;;;;;;26.90;25.37;;;;;;;0.02;100.00;99652.00;4919402;29;20492;-39
2024/01/18 10:38:02;;;;;;;28.00;26.20;;;;;;;0.20;100.00;99657.16;4927533;29;20442;-40
2024/01/18 10:40:36;;;;;;;27.77;26.17;;;;;;;0.32;100.00;99663.75;4920714;29;20475;-37
2024/01/18 10:43:05;;;;;;;28.40;27.00;;;;;;;0.48;100.00;99674.31;4919521;29;20828;-36
2024/01/18 10:45:33;;;;;;;28.13;26.83;;;;;;;0.62;100.00;99680.75;4924078;29;20960;-40
2024/01/18 10:48:01;;;;;;;28.40;27.00;;;;;;;0.71;100.00;99671.94;4923064;29;20442;-36
2024/01/18 10:50:33;;;;;;;28.27;26.90;;;;;;;0.83;100.00;99679.38;4919154;29;20433;-36
2024/01/18 10:53:01;;;;;;;29.30;27.60;;;;;;;0.96;100.00;99677.06;4933510;29;20524;-36
2024/01/18 10:55:30;;;;;;;30.50;28.90;;;;;;;1.04;100.00;99685.00;4938036;29;21097;-36
2024/01/18 10:57:59;;;;;;;29.80;28.20;;;;;;;1.15;100.00;99686.47;4931090;29;20465;-36
2024/01/18 11:00:27;;;;;;;29.80;28.27;;;;;;;1.21;100.00;99691.06;4926518;29;21016;-40
2024/01/18 11:02:57;;;;;;;29.43;28.03;;;;;;;1.33;100.00;99691.56;4918679;29;20470;-36
2024/01/18 11:05:26;;;;;;;29.83;28.23;;;;;;;1.49;100.00;99705.53;4919699;29;20494;-40
2024/01/18 11:07:55;;;;;;;30.10;28.50;;;;;;;1.48;100.00;99703.91;4918939;29;20438;-37
2024/01/18 11:10:23;;;;;;;29.90;28.50;;;;;;;1.50;100.00;99701.94;4921541;29;20461;-36
2024/01/18 11:12:52;;;;;;;30.00;28.37;;;;;;;1.55;100.00;99704.88;4923001;28;20910;-36
2024/01/18 11:15:21;;;;;;;31.00;29.40;;;;;;;1.59;100.00;99705.38;4921887;29;20449;-36